createdAt,value
2019-02-07T00:01:08.496Z,78.69
2019-02-07T00:03:38.125Z,80.48
2019-02-07T00:06:08.004Z,83.24
2019-02-07T00:08:37.563Z,82.27
2019-02-07T00:11:07.349Z,78.96
2019-02-07T00:13:36.921Z,83.80
2019-02-07T00:16:06.484Z,82.24
2019-02-07T00:18:36.157Z,81.88
2019-02-07T00:21:06.269Z,81.30
2019-02-07T00:23:35.897Z,80.72
2019-02-07T00:26:05.675Z,82.68
2019-02-07T00:28:35.446Z,83.88
2019-02-07T00:31:05.327Z,83.76
2019-02-07T00:33:35.464Z,84.00
2019-02-07T00:36:05.154Z,83.10
2019-02-07T00:38:34.914Z,85.76
2019-02-07T00:41:04.540Z,84.97
2019-02-07T00:43:34.089Z,84.44
2019-02-07T00:46:03.830Z,85.48
2019-02-07T00:48:33.718Z,85.09
2019-02-07T00:51:03.326Z,85.10
2019-02-07T00:53:32.959Z,85.58
2019-02-07T00:56:02.511Z,85.53
2019-02-07T00:58:32.106Z,86.09
2019-02-07T01:01:01.682Z,85.46
2019-02-07T01:03:31.263Z,85.49
2019-02-07T01:06:00.966Z,84.89
2019-02-07T01:08:30.729Z,87.07
2019-02-07T01:11:00.313Z,86.36
2019-02-07T01:13:30.044Z,87.95
2019-02-07T01:15:59.730Z,86.94
2019-02-07T01:18:29.526Z,85.54
2019-02-07T01:20:59.157Z,84.03
2019-02-07T01:23:28.884Z,84.29
2019-02-07T01:25:58.575Z,86.17
2019-02-07T01:28:28.257Z,84.90
2019-02-07T01:30:58.624Z,86.80
2019-02-07T01:33:28.674Z,85.08
2019-02-07T01:35:58.813Z,84.96
2019-02-07T01:38:29.251Z,85.93
2019-02-07T01:40:59.024Z,87.26
2019-02-07T01:43:28.623Z,87.32
2019-02-07T01:45:58.645Z,84.65
2019-02-07T01:48:28.652Z,84.71
2019-02-07T01:50:58.352Z,83.72
2019-02-07T01:53:27.967Z,86.43
2019-02-07T01:55:57.630Z,87.53
2019-02-07T01:58:27.290Z,86.62
2019-02-07T02:00:57.288Z,86.11
2019-02-07T02:03:26.767Z,87.92
2019-02-07T02:05:56.383Z,86.68
2019-02-07T02:08:26.027Z,86.96
2019-02-07T02:10:55.788Z,84.42
2019-02-07T02:13:25.439Z,85.97
2019-02-07T02:15:55.092Z,86.70
2019-02-07T02:18:24.750Z,85.50
2019-02-07T02:20:54.317Z,83.61
2019-02-07T02:23:23.872Z,84.38
2019-02-07T02:25:53.604Z,82.64
2019-02-07T02:28:23.175Z,83.17
2019-02-07T02:30:52.886Z,82.83
2019-02-07T02:33:22.588Z,82.64
2019-02-07T02:35:52.719Z,82.68
2019-02-07T02:38:22.303Z,81.86
2019-02-07T02:40:51.944Z,81.30
2019-02-07T02:43:22.124Z,79.49
2019-02-07T02:45:51.764Z,80.47
2019-02-07T02:48:21.353Z,80.78
2019-02-07T02:50:50.939Z,78.86
2019-02-07T02:53:20.524Z,78.31
2019-02-07T02:55:50.434Z,77.66
2019-02-07T02:58:20.613Z,77.85
2019-02-07T03:01:07.664Z,76.98
2019-02-07T03:03:39.351Z,75.01
2019-02-07T03:06:26.673Z,75.10
2019-02-07T03:09:03.942Z,76.05
2019-02-07T03:11:53.384Z,74.55
2019-02-07T03:14:25.159Z,75.13
2019-02-07T03:16:56.432Z,75.68
2019-02-07T03:19:36.911Z,73.36
2019-02-07T03:22:24.291Z,73.00
2019-02-07T03:25:13.637Z,73.21
2019-02-07T03:27:59.969Z,74.23
2019-02-07T03:30:37.715Z,75.21
2019-02-07T03:33:15.195Z,75.03
2019-02-07T03:35:52.629Z,76.19
2019-02-07T03:38:33.881Z,77.21
2019-02-07T03:41:06.482Z,76.76
2019-02-07T03:43:46.412Z,78.57
2019-02-07T03:46:26.814Z,79.53
2019-02-07T03:49:01.027Z,79.66
2019-02-07T03:51:47.181Z,81.15
2019-02-07T03:54:34.817Z,83.29
2019-02-07T03:57:06.437Z,83.16
2019-02-07T03:59:40.178Z,82.77
2019-02-07T04:02:11.797Z,83.79
2019-02-07T04:04:51.476Z,81.28
2019-02-07T04:07:23.424Z,81.56
2019-02-07T04:10:03.137Z,81.70
2019-02-07T04:12:50.607Z,82.84
2019-02-07T04:15:38.143Z,85.87
2019-02-07T04:18:21.417Z,83.17
2019-02-07T04:21:08.877Z,82.59
2019-02-07T04:23:51.747Z,86.32
2019-02-07T04:26:25.801Z,86.41
2019-02-07T04:28:57.012Z,87.44
2019-02-07T04:31:30.796Z,88.55
2019-02-07T04:34:18.535Z,86.33
2019-02-07T04:36:55.515Z,85.04
2019-02-07T04:39:32.613Z,82.38
2019-02-07T04:42:04.746Z,81.10
2019-02-07T04:44:51.888Z,79.69
2019-02-07T04:47:33.612Z,79.61
2019-02-07T04:50:17.539Z,78.65
2019-02-07T04:52:54.892Z,76.39
2019-02-07T04:55:35.292Z,74.98
2019-02-07T04:58:19.100Z,74.94
2019-02-07T05:00:59.157Z,74.79
2019-02-07T05:03:33.096Z,72.96
2019-02-07T05:06:20.301Z,71.37
2019-02-07T05:08:57.531Z,71.68
2019-02-07T05:11:29.113Z,70.07
2019-02-07T05:14:06.623Z,68.90
2019-02-07T05:16:43.673Z,69.55
2019-02-07T05:19:31.965Z,68.86
2019-02-07T05:22:04.229Z,69.71
2019-02-07T05:24:41.326Z,69.65
2019-02-07T05:27:27.422Z,69.89
2019-02-07T05:30:04.836Z,71.29
2019-02-07T05:32:38.897Z,71.07
2019-02-07T05:35:25.736Z,70.95
2019-02-07T05:37:57.036Z,70.95
2019-02-07T05:40:28.239Z,70.39
2019-02-07T05:42:59.375Z,70.13
2019-02-07T05:45:46.340Z,71.14
2019-02-07T05:48:18.188Z,70.18
2019-02-07T05:50:53.633Z,72.18
2019-02-07T05:53:27.331Z,71.72
2019-02-07T05:56:14.201Z,73.14
2019-02-07T05:59:01.308Z,72.42
2019-02-07T06:01:48.964Z,74.13
2019-02-07T06:04:30.065Z,71.87
2019-02-07T06:07:07.517Z,72.04
2019-02-07T06:09:50.423Z,71.43
2019-02-07T06:12:30.838Z,72.30
2019-02-07T06:15:05.021Z,70.67
2019-02-07T06:17:36.282Z,71.43
2019-02-07T06:20:11.675Z,72.21
2019-02-07T06:22:59.582Z,70.66
2019-02-07T06:25:39.589Z,73.00
2019-02-07T06:28:13.544Z,74.41
2019-02-07T06:30:47.926Z,75.70
2019-02-07T06:33:37.466Z,76.00
2019-02-07T06:36:17.800Z,76.36
2019-02-07T06:39:07.865Z,77.13
2019-02-07T06:41:48.121Z,79.41
2019-02-07T06:44:22.246Z,82.15
2019-02-07T06:46:56.472Z,83.74
2019-02-07T06:49:44.301Z,85.09
2019-02-07T06:52:21.358Z,85.77
2019-02-07T06:55:09.176Z,86.77
2019-02-07T06:57:56.537Z,90.28
2019-02-07T07:00:30.687Z,92.64
2019-02-07T07:03:02.956Z,95.57
2019-02-07T07:05:34.315Z,96.87
2019-02-07T07:08:20.777Z,96.41
2019-02-07T07:10:59.463Z,98.96
2019-02-07T07:13:36.562Z,99.57
2019-02-07T07:16:11.819Z,97.78
2019-02-07T07:18:49.946Z,97.44
2019-02-07T07:21:28.402Z,97.93
2019-02-07T07:24:05.644Z,96.77
2019-02-07T07:26:52.353Z,96.19
2019-02-07T07:29:21.900Z,94.22
2019-02-07T07:32:02.087Z,96.14
2019-02-07T07:34:49.426Z,95.01
2019-02-07T07:37:39.070Z,95.63
2019-02-07T07:40:16.674Z,96.20
2019-02-07T07:42:54.151Z,96.32
2019-02-07T07:45:41.471Z,94.11
2019-02-07T07:48:15.265Z,95.45
2019-02-07T07:50:49.540Z,97.18
2019-02-07T07:53:34.352Z,94.08
2019-02-07T07:56:11.877Z,98.05
2019-02-07T07:58:46.290Z,98.59
2019-02-07T08:01:33.735Z,97.88
2019-02-07T08:04:07.963Z,98.41
2019-02-07T08:06:51.563Z,99.93
2019-02-07T08:09:41.415Z,100.00
2019-02-07T08:12:12.680Z,100.00
2019-02-07T08:15:00.322Z,100.00
2019-02-07T08:17:49.974Z,100.00
2019-02-07T08:20:37.714Z,100.00
2019-02-07T08:23:09.376Z,100.00
2019-02-07T08:25:56.662Z,100.00
2019-02-07T08:28:39.472Z,100.00
2019-02-07T08:31:19.755Z,100.00
2019-02-07T08:33:53.793Z,100.00
2019-02-07T08:36:31.322Z,100.00
2019-02-07T08:39:05.574Z,100.00
2019-02-07T08:41:40.725Z,100.00
2019-02-07T08:44:14.171Z,100.00
2019-02-07T08:47:01.405Z,100.00
2019-02-07T08:49:35.662Z,100.00
2019-02-07T08:52:10.239Z,100.00
2019-02-07T08:54:56.850Z,100.00
2019-02-07T08:57:30.861Z,100.00
2019-02-07T09:00:10.752Z,100.00
2019-02-07T09:02:51.623Z,100.00
2019-02-07T09:05:15.236Z,100.00
2019-02-07T09:08:02.951Z,100.00
2019-02-07T09:10:38.816Z,100.00
2019-02-07T09:13:10.145Z,100.00
2019-02-07T09:15:41.428Z,100.00
2019-02-07T09:18:28.151Z,100.00
2019-02-07T09:21:12.540Z,100.00
2019-02-07T09:23:46.910Z,100.00
2019-02-07T09:26:25.303Z,100.00
2019-02-07T09:28:59.826Z,100.00
2019-02-07T09:31:36.946Z,100.00
2019-02-07T09:34:06.801Z,100.00
2019-02-07T09:36:38.145Z,100.00
2019-02-07T09:39:26.985Z,100.00
2019-02-07T09:42:01.297Z,100.00
2019-02-07T09:44:39.606Z,100.00
2019-02-07T09:47:27.125Z,100.00
2019-02-07T09:49:59.285Z,100.00
2019-02-07T09:52:46.832Z,100.00
2019-02-07T09:55:21.124Z,100.00
2019-02-07T09:57:52.943Z,100.00
2019-02-07T10:00:39.831Z,100.00
2019-02-07T10:03:27.415Z,100.00
2019-02-07T10:05:58.755Z,100.00
2019-02-07T10:08:38.593Z,100.00
2019-02-07T10:11:09.901Z,100.00
2019-02-07T10:13:48.038Z,100.00
2019-02-07T10:16:34.555Z,100.00
2019-02-07T10:19:06.295Z,100.00
2019-02-07T10:21:55.699Z,100.00
2019-02-07T10:24:30.445Z,100.00
2019-02-07T10:27:01.875Z,100.00
2019-02-07T10:29:38.917Z,100.00
2019-02-07T10:32:11.226Z,100.00
2019-02-07T10:34:42.466Z,100.00
2019-02-07T10:37:13.794Z,100.00
2019-02-07T10:39:45.355Z,100.00
2019-02-07T10:42:16.612Z,100.00
2019-02-07T10:45:01.838Z,100.00
2019-02-07T10:47:49.752Z,100.00
2019-02-07T10:50:38.187Z,100.00
2019-02-07T10:53:12.178Z,100.00
2019-02-07T10:55:59.853Z,100.00
2019-02-07T10:58:46.879Z,100.00
2019-02-07T11:01:18.650Z,100.00
2019-02-07T11:03:56.254Z,100.00
2019-02-07T11:06:30.406Z,100.00
2019-02-07T11:09:04.670Z,100.00
2019-02-07T11:11:52.026Z,100.00
2019-02-07T11:14:25.950Z,100.00
2019-02-07T11:17:13.409Z,100.00
2019-02-07T11:19:54.516Z,100.00
2019-02-07T11:22:31.896Z,100.00
2019-02-07T11:25:03.217Z,100.00
2019-02-07T11:27:51.270Z,100.00
2019-02-07T11:30:40.515Z,100.00
2019-02-07T11:33:12.147Z,100.00
2019-02-07T11:35:59.943Z,100.00
2019-02-07T11:38:31.269Z,100.00
2019-02-07T11:41:06.703Z,100.00
2019-02-07T11:43:38.197Z,100.00
2019-02-07T11:46:25.307Z,100.00
2019-02-07T11:49:06.936Z,100.00
2019-02-07T11:51:43.245Z,100.00
2019-02-07T11:54:32.934Z,100.00
2019-02-07T11:57:07.088Z,99.23
2019-02-07T11:59:54.664Z,99.52
2019-02-07T12:02:26.039Z,99.19
2019-02-07T12:05:00.261Z,100.00
2019-02-07T12:07:40.204Z,98.80
2019-02-07T12:10:29.938Z,100.00
2019-02-07T12:12:59.344Z,98.02
2019-02-07T12:15:33.736Z,100.00
2019-02-07T12:18:05.063Z,98.21
2019-02-07T12:20:36.979Z,93.89
2019-02-07T12:23:15.329Z,97.57
2019-02-07T12:25:47.380Z,94.88
2019-02-07T12:28:37.796Z,94.04
2019-02-07T12:31:18.470Z,95.68
2019-02-07T12:33:56.336Z,92.21
2019-02-07T12:36:29.139Z,90.78
2019-02-07T12:39:00.739Z,92.20
2019-02-07T12:41:47.154Z,91.07
2019-02-07T12:44:30.803Z,88.32
2019-02-07T12:47:03.922Z,89.21
2019-02-07T12:49:35.142Z,86.51
2019-02-07T12:52:18.900Z,84.24
2019-02-07T12:55:05.605Z,83.85
2019-02-07T12:57:50.386Z,83.04
2019-02-07T13:00:34.012Z,82.61
2019-02-07T13:03:17.845Z,80.28
2019-02-07T13:05:47.480Z,79.77
2019-02-07T13:08:19.552Z,82.61
2019-02-07T13:11:06.583Z,83.25
2019-02-07T13:13:41.766Z,79.74
2019-02-07T13:16:13.150Z,80.26
2019-02-07T13:18:59.673Z,77.37
2019-02-07T13:21:33.961Z,78.82
2019-02-07T13:24:07.974Z,78.00
2019-02-07T13:26:55.354Z,80.37
2019-02-07T13:29:39.513Z,82.05
2019-02-07T13:32:14.483Z,80.75
2019-02-07T13:34:51.468Z,80.93
2019-02-07T13:37:29.155Z,81.16
2019-02-07T13:40:05.887Z,80.48
2019-02-07T13:42:49.432Z,80.83
2019-02-07T13:45:23.564Z,81.27
2019-02-07T13:48:00.899Z,82.08
2019-02-07T13:50:38.434Z,79.38
2019-02-07T13:53:18.756Z,82.14
2019-02-07T13:55:58.581Z,78.24
2019-02-07T13:58:31.051Z,82.26
2019-02-07T14:01:08.328Z,79.63
2019-02-07T14:03:39.844Z,81.62
2019-02-07T14:06:18.425Z,81.83
2019-02-07T14:09:02.724Z,78.67
2019-02-07T14:11:50.165Z,78.44
2019-02-07T14:14:37.407Z,79.56
2019-02-07T14:17:08.959Z,78.34
2019-02-07T14:20:03.688Z,76.79
2019-02-07T14:22:41.754Z,76.42
2019-02-07T14:25:14.313Z,78.39
2019-02-07T14:28:02.491Z,77.53
2019-02-07T14:30:40.952Z,76.50
2019-02-07T14:33:28.519Z,77.88
2019-02-07T14:36:12.258Z,78.14
2019-02-07T14:38:52.591Z,81.71
2019-02-07T14:41:32.798Z,79.95
2019-02-07T14:44:04.265Z,77.88
2019-02-07T14:46:34.362Z,78.29
2019-02-07T14:49:04.039Z,77.93
2019-02-07T14:51:33.841Z,80.88
2019-02-07T14:54:03.803Z,81.46
2019-02-07T14:56:33.802Z,78.97
2019-02-07T14:59:06.210Z,79.69
2019-02-07T15:01:35.844Z,80.68
2019-02-07T15:04:06.221Z,80.21
2019-02-07T15:06:36.127Z,80.49
2019-02-07T15:09:10.438Z,78.61
2019-02-07T15:11:40.098Z,81.27
2019-02-07T15:14:09.825Z,79.65
2019-02-07T15:16:40.995Z,79.94
2019-02-07T15:19:11.350Z,82.25
2019-02-07T15:21:41.109Z,80.40
2019-02-07T15:24:11.174Z,81.27
2019-02-07T15:26:41.772Z,82.58
2019-02-07T15:29:11.506Z,80.44
2019-02-07T15:31:41.127Z,79.49
2019-02-07T15:34:10.811Z,83.17
2019-02-07T15:36:40.598Z,80.61
2019-02-07T15:39:12.664Z,80.01
2019-02-07T15:41:42.541Z,82.12
2019-02-07T15:44:12.263Z,80.40
2019-02-07T15:46:42.044Z,81.17
2019-02-07T15:49:11.739Z,81.59
2019-02-07T15:51:41.901Z,80.64
2019-02-07T15:54:11.700Z,82.73
2019-02-07T15:56:41.857Z,78.26
2019-02-07T15:59:15.852Z,81.31
2019-02-07T16:01:50.399Z,80.30
2019-02-07T16:04:21.654Z,79.71
2019-02-07T16:06:51.423Z,80.52
2019-02-07T16:09:21.118Z,80.50
2019-02-07T16:11:51.914Z,83.65
2019-02-07T16:14:21.906Z,83.91
2019-02-07T16:16:51.670Z,82.66
2019-02-07T16:19:21.679Z,83.42
2019-02-07T16:21:51.508Z,85.92
2019-02-07T16:24:21.295Z,82.39
2019-02-07T16:26:51.490Z,83.24
2019-02-07T16:29:22.313Z,83.24
2019-02-07T16:31:53.648Z,82.07
2019-02-07T16:34:23.371Z,82.55
2019-02-07T16:36:53.051Z,82.59
2019-02-07T16:39:23.526Z,81.76
2019-02-07T16:41:53.267Z,81.69
2019-02-07T16:44:23.332Z,83.90
2019-02-07T16:46:54.467Z,81.99
2019-02-07T16:49:24.199Z,80.57
2019-02-07T16:51:54.237Z,82.10
2019-02-07T16:54:23.998Z,82.24
2019-02-07T16:56:53.712Z,81.73
2019-02-07T16:59:23.537Z,80.74
2019-02-07T17:01:53.190Z,81.32
2019-02-07T17:04:22.908Z,82.11
2019-02-07T17:06:52.665Z,80.71
2019-02-07T17:09:24.331Z,79.51
2019-02-07T17:11:54.002Z,78.69
2019-02-07T17:14:24.656Z,80.34
2019-02-07T17:16:54.445Z,81.60
2019-02-07T17:19:24.202Z,79.33
2019-02-07T17:21:53.961Z,78.70
2019-02-07T17:24:23.751Z,79.68
2019-02-07T17:26:53.806Z,80.41
2019-02-07T17:29:23.830Z,81.18
2019-02-07T17:31:53.511Z,80.11
2019-02-07T17:34:23.216Z,79.98
2019-02-07T17:36:52.948Z,79.40
2019-02-07T17:39:22.610Z,79.39
2019-02-07T17:41:52.480Z,79.34
2019-02-07T17:44:22.645Z,80.47
2019-02-07T17:46:52.359Z,80.83
2019-02-07T17:49:22.122Z,80.19
2019-02-07T17:51:51.840Z,79.23
2019-02-07T17:54:21.446Z,81.18
2019-02-07T17:56:51.128Z,82.62
2019-02-07T17:59:21.141Z,81.08
2019-02-07T18:01:50.890Z,82.61
2019-02-07T18:04:20.430Z,81.11
2019-02-07T18:06:50.184Z,83.70
2019-02-07T18:09:20.220Z,83.01
2019-02-07T18:11:49.828Z,83.51
2019-02-07T18:14:27.504Z,83.88
2019-02-07T18:16:57.138Z,84.09
2019-02-07T18:19:26.931Z,84.72
2019-02-07T18:21:57.328Z,87.97
2019-02-07T18:24:27.231Z,87.76
2019-02-07T18:26:57.357Z,88.12
2019-02-07T18:29:27.129Z,88.37
2019-02-07T18:31:56.860Z,88.84
2019-02-07T18:34:26.572Z,89.76
2019-02-07T18:36:56.238Z,91.79
2019-02-07T18:39:25.849Z,92.26
2019-02-07T18:41:55.953Z,92.25
2019-02-07T18:44:25.623Z,89.76
2019-02-07T18:46:55.534Z,90.87
2019-02-07T18:49:26.166Z,91.43
2019-02-07T18:51:55.782Z,92.76
2019-02-07T18:54:25.710Z,94.51
2019-02-07T18:56:55.453Z,94.85
2019-02-07T18:59:25.162Z,95.61
2019-02-07T19:01:54.727Z,92.62
2019-02-07T19:04:24.550Z,95.11
2019-02-07T19:06:54.180Z,97.11
2019-02-07T19:09:23.836Z,93.93
2019-02-07T19:11:53.810Z,93.45
2019-02-07T19:14:23.377Z,94.15
2019-02-07T19:16:52.980Z,95.58
2019-02-07T19:19:22.806Z,94.38
2019-02-07T19:22:11.871Z,91.56
2019-02-07T19:24:41.652Z,91.97
2019-02-07T19:27:11.486Z,93.62
2019-02-07T19:29:41.211Z,92.86
2019-02-07T19:32:10.787Z,91.66
2019-02-07T19:34:40.543Z,91.47
2019-02-07T19:37:10.706Z,91.85
2019-02-07T19:39:40.481Z,93.00
2019-02-07T19:42:10.596Z,94.05
2019-02-07T19:44:40.365Z,92.69
2019-02-07T19:47:10.117Z,91.80
2019-02-07T19:49:40.180Z,91.21
2019-02-07T19:52:10.216Z,93.59
2019-02-07T19:54:39.829Z,92.79
2019-02-07T19:57:09.699Z,92.63
2019-02-07T19:59:39.658Z,94.12
2019-02-07T20:02:09.780Z,93.33
2019-02-07T20:04:39.707Z,92.06
2019-02-07T20:07:09.918Z,93.68
2019-02-07T20:09:39.738Z,94.08
2019-02-07T20:12:09.958Z,94.52
2019-02-07T20:14:39.826Z,95.08
2019-02-07T20:17:09.516Z,94.67
2019-02-07T20:19:39.342Z,95.67
2019-02-07T20:22:19.830Z,94.56
2019-02-07T20:24:46.151Z,94.85
2019-02-07T20:27:13.655Z,93.44
2019-02-07T20:29:43.546Z,95.07
2019-02-07T20:32:13.388Z,95.57
2019-02-07T20:34:43.289Z,95.77
2019-02-07T20:37:13.554Z,94.15
2019-02-07T20:39:43.242Z,96.53
2019-02-07T20:42:12.970Z,95.62
2019-02-07T20:44:42.614Z,96.85
2019-02-07T20:47:12.691Z,98.08
2019-02-07T20:49:44.168Z,96.09
2019-02-07T20:52:14.167Z,97.72
2019-02-07T20:54:44.017Z,96.44
2019-02-07T20:57:14.162Z,94.41
2019-02-07T20:59:44.106Z,95.29
2019-02-07T21:02:14.020Z,95.38
2019-02-07T21:04:43.731Z,95.75
2019-02-07T21:07:13.576Z,93.10
2019-02-07T21:09:43.742Z,94.97
2019-02-07T21:12:13.291Z,94.83
2019-02-07T21:14:43.038Z,95.55
2019-02-07T21:17:12.791Z,93.60
2019-02-07T21:19:42.541Z,95.22
2019-02-07T21:22:12.327Z,97.03
2019-02-07T21:24:42.451Z,98.30
2019-02-07T21:27:12.267Z,95.97
2019-02-07T21:29:42.151Z,97.44
2019-02-07T21:32:11.930Z,99.35
2019-02-07T21:34:41.734Z,98.48
2019-02-07T21:37:11.301Z,97.51
2019-02-07T21:39:41.697Z,99.25
2019-02-07T21:42:11.352Z,98.09
2019-02-07T21:44:41.194Z,96.32
2019-02-07T21:47:10.906Z,99.13
2019-02-07T21:49:40.661Z,98.78
2019-02-07T21:52:10.257Z,99.86
2019-02-07T21:54:39.993Z,100.00
2019-02-07T21:57:10.144Z,99.16
2019-02-07T21:59:39.750Z,100.00
2019-02-07T22:02:09.761Z,100.00
2019-02-07T22:04:39.761Z,99.43
2019-02-07T22:07:09.326Z,99.47
2019-02-07T22:09:39.014Z,100.00
2019-02-07T22:12:08.904Z,100.00
2019-02-07T22:14:38.576Z,100.00
2019-02-07T22:17:09.395Z,98.53
2019-02-07T22:19:39.286Z,100.00
2019-02-07T22:22:09.250Z,100.00
2019-02-07T22:24:38.882Z,100.00
2019-02-07T22:27:08.610Z,100.00
2019-02-07T22:29:38.294Z,100.00
2019-02-07T22:32:08.093Z,100.00
2019-02-07T22:34:37.801Z,100.00
2019-02-07T22:37:07.699Z,100.00
2019-02-07T22:39:37.489Z,100.00
2019-02-07T22:42:07.164Z,100.00
2019-02-07T22:44:36.945Z,100.00
2019-02-07T22:47:06.601Z,100.00
2019-02-07T22:49:36.133Z,100.00
2019-02-07T22:52:06.635Z,100.00
2019-02-07T22:54:36.740Z,100.00
2019-02-07T22:57:06.488Z,100.00
2019-02-07T22:59:36.361Z,100.00
2019-02-07T23:02:08.296Z,100.00
2019-02-07T23:04:38.085Z,100.00
2019-02-07T23:07:08.060Z,100.00
2019-02-07T23:09:38.028Z,100.00
2019-02-07T23:12:07.933Z,100.00
2019-02-07T23:14:37.674Z,100.00
2019-02-07T23:17:07.531Z,100.00
2019-02-07T23:19:37.208Z,100.00
2019-02-07T23:22:07.372Z,100.00
2019-02-07T23:24:37.272Z,100.00
2019-02-07T23:27:07.323Z,100.00
2019-02-07T23:29:37.037Z,100.00
2019-02-07T23:32:07.130Z,100.00
2019-02-07T23:34:37.098Z,100.00
2019-02-07T23:37:06.794Z,100.00
2019-02-07T23:39:36.487Z,100.00
2019-02-07T23:42:06.619Z,100.00
2019-02-07T23:44:36.770Z,100.00
2019-02-07T23:47:06.414Z,100.00
2019-02-07T23:49:36.249Z,100.00
2019-02-07T23:52:05.923Z,100.00
2019-02-07T23:54:36.092Z,100.00
2019-02-07T23:57:05.957Z,100.00
2019-02-07T23:59:36.040Z,100.00
